YSWG/WGA METAR and TAF weather

Enter ICAO airport designator
Station Type Date Time Source
YSWG METAR 2019/12/08 03:00 UTC NOAA

YSWG 080300Z AUTO 05005KT 360V110 9999 // NCD 30/M00 Q1016


Station Type Date Time Source
YSWG Decoded METAR 2019/12/08 03:00 UTC NOAA

Wagga Airport, Australia (YSWG) 35-09S 147-27E 213M
Dec 07, 2019 - 10:00 PM EST / 2019.12.08 0300 UTC
Wind: from the NE (050 degrees) at 6 MPH (5 KT) (direction variable):0
Visibility: greater than 7 mile(s):0
Temperature: 86 F (30 C)
Dew Point: 32 F (0 C)
Relative Humidity: 14%
Pressure (altimeter): 30.00 in. Hg (1016 hPa)
ob: YSWG 080300Z AUTO 05005KT 360V110 9999 // NCD 30/M00 Q1016
cycle: 3

Station Type Date Time Source
YSWG TAF 2018/05/25 18:03 UTC NOAA

TAF YSWG 251649Z 2518/2608 07008KT CAVOK

Example: see airport list